Cleveland, Ohio
Traffic Map
Current Weather Conditions
Cleveland, Ohio
Few Clouds
Few Clouds
68°
Feels Like: 68°
Wind Chill: 68° Ceiling: Unl
Heat Index: 68° Visibility: 10mi
Dew Point: 55° Wind: 6mph
Humidity: 63% Direction: 170° (S)
Pressure: 30.21in Gusts: 0mph
Raw Report DataKBKL 281353Z 17005KT 10SM FEW060 20/13 A3021 RMK AO2 SLP229 T02000128
Traffic Incident Summary
Active as of:
Severity:
Category:
InformationThere was an issue retrieving the traffic information for this location. Please try a different location or try again shortly.
Advertisements
Track Severe Weather on mobile